Time,TemperatureF,DewpointF,PressureIn,WindDirection,WindDirectionDegrees,WindSpeedMPH,WindSpeedGustMPH,Humidity,HourlyPrecipIn,Conditions,Clouds,dailyrainin,SoftwareType,DateUTC
2013-03-02 00:02:00,41.5,13.5,30.35,East,80,0.0,0.0,32,0.00,,---,0.00,VWS V14.01,2013-03-02 08:02:00,
2013-03-02 00:08:00,40.6,12.7,30.35,East,80,0.0,0.0,32,0.00,,---,0.00,VWS V14.01,2013-03-02 08:08:00,
2013-03-02 00:14:00,40.5,12.6,30.35,East,79,0.0,0.0,32,0.00,,---,0.00,VWS V14.01,2013-03-02 08:14:00,
2013-03-02 00:19:00,40.5,12.6,30.35,ENE,62,7.2,7.2,32,0.00,,---,0.00,VWS V14.01,2013-03-02 08:19:00,
2013-03-02 00:25:00,40.3,12.4,30.35,East,82,2.7,4.0,32,0.00,,---,0.00,VWS V14.01,2013-03-02 08:25:00,
2013-03-02 00:31:00,40.1,12.3,30.35,ENE,74,2.7,4.9,32,0.00,,---,0.00,VWS V14.01,2013-03-02 08:31:00,
2013-03-02 00:37:00,39.9,12.1,30.35,East,98,0.0,0.0,32,0.00,,---,0.00,VWS V14.01,2013-03-02 08:37:00,
2013-03-02 00:42:00,39.6,11.8,30.35,East,84,4.0,4.0,32,0.00,,---,0.00,VWS V14.01,2013-03-02 08:42:00,
2013-03-02 00:48:00,39.4,11.6,30.35,ENE,70,3.6,4.0,32,0.00,,---,0.00,VWS V14.01,2013-03-02 08:48:00,
2013-03-02 00:54:00,38.8,11.2,30.35,ENE,71,0.0,0.0,32,0.00,,---,0.00,VWS V14.01,2013-03-02 08:54:00,
2013-03-02 01:00:00,38.5,10.9,30.35,ESE,105,0.0,0.0,32,0.00,,---,0.00,VWS V14.01,2013-03-02 09:00:00,
2013-03-02 01:05:00,37.9,10.4,30.35,East,84,0.0,3.6,32,0.00,,---,0.00,VWS V14.01,2013-03-02 09:05:00,
2013-03-02 01:11:00,37.6,10.1,30.35,WNW,283,3.1,4.0,32,0.00,,---,0.00,VWS V14.01,2013-03-02 09:11:00,
2013-03-02 01:17:00,37.4,9.9,30.35,NE,39,2.7,2.7,32,0.00,,---,0.00,VWS V14.01,2013-03-02 09:17:00,
2013-03-02 01:22:00,38.8,11.2,30.35,East,80,8.3,10.1,32,0.00,,---,0.00,VWS V14.01,2013-03-02 09:22:00,
2013-03-02 01:27:00,40.1,12.3,30.32,ENE,72,12.3,13.2,32,0.00,,---,0.00,VWS V14.01,2013-03-02 09:27:00,
2013-03-02 01:33:00,39.4,11.6,30.32,East,90,11.0,12.8,32,0.00,,---,0.00,VWS V14.01,2013-03-02 09:33:00,
2013-03-02 01:38:00,40.3,12.4,30.32,East,83,8.7,9.2,32,0.00,,---,0.00,VWS V14.01,2013-03-02 09:38:00,
2013-03-02 01:44:00,40.5,12.6,30.32,ESE,122,5.8,5.8,32,0.00,,---,0.00,VWS V14.01,2013-03-02 09:44:00,
2013-03-02 01:49:00,39.9,12.1,30.32,East,80,4.9,5.4,32,0.00,,---,0.00,VWS V14.01,2013-03-02 09:49:00,
2013-03-02 01:54:00,39.9,12.1,30.32,ENE,76,6.3,8.1,32,0.00,,---,0.00,VWS V14.01,2013-03-02 09:54:00,
2013-03-02 02:00:00,40.5,12.6,30.32,East,87,4.0,4.9,32,0.00,,---,0.00,VWS V14.01,2013-03-02 10:00:00,
2013-03-02 02:06:00,40.3,12.4,30.32,East,92,4.5,5.4,32,0.00,,---,0.00,VWS V14.01,2013-03-02 10:06:00,
2013-03-02 02:11:00,39.9,12.1,30.32,ESE,106,3.1,4.0,32,0.00,,---,0.00,VWS V14.01,2013-03-02 10:11:00,
2013-03-02 02:17:00,39.6,11.8,30.32,ESE,116,5.4,5.4,32,0.00,,---,0.00,VWS V14.01,2013-03-02 10:17:00,
2013-03-02 02:23:00,39.2,11.5,30.32,ESE,113,4.0,5.8,32,0.00,,---,0.00,VWS V14.01,2013-03-02 10:23:00,
2013-03-02 02:28:00,39.0,11.3,30.32,ENE,69,4.5,4.9,32,0.00,,---,0.00,VWS V14.01,2013-03-02 10:28:00,
2013-03-02 02:34:00,38.7,11.0,30.32,ENE,64,5.4,6.3,32,0.00,,---,0.00,VWS V14.01,2013-03-02 10:34:00,
2013-03-02 02:40:00,38.5,10.9,30.32,ENE,72,6.3,7.6,32,0.00,,---,0.00,VWS V14.01,2013-03-02 10:40:00,
2013-03-02 02:46:00,39.0,14.3,30.32,ENE,68,5.4,5.4,36,0.00,,---,0.00,VWS V14.01,2013-03-02 10:46:00,
2013-03-02 02:51:00,38.7,14.0,30.32,East,99,0.0,2.7,36,0.00,,---,0.00,VWS V14.01,2013-03-02 10:51:00,
2013-03-02 02:56:00,38.1,13.5,30.32,ESE,102,0.0,0.0,36,0.00,,---,0.00,VWS V14.01,2013-03-02 10:56:00,
2013-03-02 03:02:00,37.8,13.2,30.32,East,98,3.6,4.0,36,0.00,,---,0.00,VWS V14.01,2013-03-02 11:02:00,
2013-03-02 03:07:00,38.1,13.5,30.32,East,86,5.4,6.7,36,0.00,,---,0.00,VWS V14.01,2013-03-02 11:07:00,
2013-03-02 03:13:00,38.7,14.0,30.32,East,100,4.9,5.4,36,0.00,,---,0.00,VWS V14.01,2013-03-02 11:13:00,
2013-03-02 03:19:00,39.2,13.5,30.32,East,93,5.8,6.3,34,0.00,,---,0.00,VWS V14.01,2013-03-02 11:19:00,
2013-03-02 03:24:00,39.9,14.2,30.32,ENE,67,7.6,7.6,34,0.00,,---,0.00,VWS V14.01,2013-03-02 11:24:00,
2013-03-02 03:29:00,39.7,14.0,30.32,ENE,72,5.4,6.3,34,0.00,,---,0.00,VWS V14.01,2013-03-02 11:29:00,
2013-03-02 03:35:00,39.9,14.2,30.32,East,85,6.3,8.3,34,0.00,,---,0.00,VWS V14.01,2013-03-02 11:35:00,
2013-03-02 03:40:00,40.6,14.8,30.32,ENE,71,5.4,8.1,34,0.00,,---,0.00,VWS V14.01,2013-03-02 11:40:00,
2013-03-02 03:46:00,41.4,15.4,30.32,ENE,72,8.3,8.3,34,0.00,,---,0.00,VWS V14.01,2013-03-02 11:46:00,
2013-03-02 03:51:00,41.2,15.3,30.32,SE,125,5.8,5.8,34,0.00,,---,0.00,VWS V14.01,2013-03-02 11:51:00,
2013-03-02 03:57:00,40.3,14.5,30.32,ESE,108,3.6,4.0,34,0.00,,---,0.00,VWS V14.01,2013-03-02 11:57:00,
2013-03-02 04:02:00,40.1,14.3,30.32,East,100,4.0,4.0,34,0.00,,---,0.00,VWS V14.01,2013-03-02 12:02:00,
2013-03-02 04:08:00,40.3,14.5,30.32,ESE,121,3.1,3.6,34,0.00,,---,0.00,VWS V14.01,2013-03-02 12:08:00,
2013-03-02 04:14:00,40.1,14.3,30.32,ENE,76,6.7,6.7,34,0.00,,---,0.00,VWS V14.01,2013-03-02 12:14:00,
2013-03-02 04:20:00,43.2,17.0,30.32,ENE,70,7.6,7.6,34,0.00,,---,0.00,VWS V14.01,2013-03-02 12:20:00,
2013-03-02 04:26:00,44.8,17.5,30.32,NE,43,8.1,8.1,33,0.00,,---,0.00,VWS V14.01,2013-03-02 12:26:00,
2013-03-02 04:32:00,45.7,18.2,30.32,ENE,59,8.1,9.2,33,0.00,,---,0.00,VWS V14.01,2013-03-02 12:32:00,
2013-03-02 04:38:00,46.0,18.6,30.32,ENE,64,6.3,8.7,33,0.00,,---,0.00,VWS V14.01,2013-03-02 12:38:00,
2013-03-02 04:43:00,46.2,18.7,30.32,NE,49,8.7,8.7,33,0.00,,---,0.00,VWS V14.01,2013-03-02 12:43:00,
2013-03-02 04:49:00,46.9,19.4,30.32,ENE,61,6.3,6.3,33,0.00,,---,0.00,VWS V14.01,2013-03-02 12:49:00,
2013-03-02 04:55:00,46.9,16.0,30.32,NE,46,12.3,12.3,28,0.00,,---,0.00,VWS V14.01,2013-03-02 12:55:00,
2013-03-02 05:00:00,47.5,16.4,30.32,ENE,66,8.1,8.1,28,0.00,,---,0.00,VWS V14.01,2013-03-02 13:00:00,
2013-03-02 05:05:00,48.6,17.4,30.32,NE,56,8.7,11.0,28,0.00,,---,0.00,VWS V14.01,2013-03-02 13:05:00,
2013-03-02 05:11:00,48.7,17.5,30.32,NE,46,7.6,8.3,28,0.00,,---,0.00,VWS V14.01,2013-03-02 13:11:00,
2013-03-02 05:17:00,48.2,17.0,30.32,East,94,5.4,6.3,28,0.00,,---,0.00,VWS V14.01,2013-03-02 13:17:00,
2013-03-02 05:22:00,48.0,16.9,30.32,ENE,78,8.1,8.7,28,0.00,,---,0.00,VWS V14.01,2013-03-02 13:22:00,
2013-03-02 05:28:00,47.3,16.3,30.29,ENE,67,8.3,10.5,28,0.00,,---,0.00,VWS V14.01,2013-03-02 13:28:00,
2013-03-02 05:34:00,46.4,15.5,30.29,East,79,5.4,7.6,28,0.00,,---,0.00,VWS V14.01,2013-03-02 13:34:00,
2013-03-02 05:40:00,45.9,16.2,30.32,East,85,5.4,6.7,30,0.00,,---,0.00,VWS V14.01,2013-03-02 13:40:00,
2013-03-02 05:45:00,45.0,15.4,30.32,ESE,110,5.8,5.8,30,0.00,,---,0.00,VWS V14.01,2013-03-02 13:45:00,
2013-03-02 05:50:00,44.2,14.8,30.32,East,83,5.8,6.3,30,0.00,,---,0.00,VWS V14.01,2013-03-02 13:50:00,
2013-03-02 05:56:00,43.9,14.5,30.32,ESE,111,5.4,5.8,30,0.00,,---,0.00,VWS V14.01,2013-03-02 13:56:00,
2013-03-02 06:01:00,43.5,14.2,30.32,East,94,3.6,5.4,30,0.00,,---,0.00,VWS V14.01,2013-03-02 14:01:00,
2013-03-02 06:07:00,43.0,13.7,30.32,ENE,74,5.4,5.4,30,0.00,,---,0.00,VWS V14.01,2013-03-02 14:07:00,
2013-03-02 06:12:00,42.8,13.5,30.32,ESE,120,5.4,6.3,30,0.00,,---,0.00,VWS V14.01,2013-03-02 14:12:00,
2013-03-02 06:17:00,42.4,14.3,30.32,ENE,76,4.9,6.3,32,0.00,,---,0.00,VWS V14.01,2013-03-02 14:17:00,
2013-03-02 06:23:00,43.7,14.3,30.32,ENE,62,5.8,5.8,30,0.00,,---,0.00,VWS V14.01,2013-03-02 14:23:00,
2013-03-02 06:29:00,46.4,15.5,30.32,ENE,66,8.7,8.7,28,0.00,,---,0.00,VWS V14.01,2013-03-02 14:29:00,
2013-03-02 06:35:00,47.5,16.4,30.32,ENE,67,8.7,10.5,28,0.00,,---,0.00,VWS V14.01,2013-03-02 14:35:00,
2013-03-02 06:41:00,48.2,17.0,30.32,ENE,69,11.4,11.4,28,0.00,,---,0.00,VWS V14.01,2013-03-02 14:41:00,
2013-03-02 06:46:00,48.9,17.7,30.32,NE,50,8.7,12.3,28,0.00,,---,0.00,VWS V14.01,2013-03-02 14:46:00,
2013-03-02 06:51:00,50.0,18.6,30.32,ENE,57,8.3,12.3,28,0.00,,---,0.00,VWS V14.01,2013-03-02 14:51:00,
2013-03-02 06:57:00,50.2,18.8,30.32,NE,44,7.6,10.1,28,0.00,,---,0.00,VWS V14.01,2013-03-02 14:57:00,
2013-03-02 07:03:00,51.4,19.9,30.32,NE,50,8.1,8.3,28,0.00,,---,0.00,VWS V14.01,2013-03-02 15:03:00,
2013-03-02 07:08:00,52.7,19.7,30.32,NE,56,8.3,8.7,27,0.00,,---,0.00,VWS V14.01,2013-03-02 15:08:00,
2013-03-02 07:14:00,53.8,20.6,30.32,NE,43,12.8,14.1,27,0.00,,---,0.00,VWS V14.01,2013-03-02 15:14:00,
2013-03-02 07:19:00,54.7,21.4,30.32,ENE,71,11.0,15.0,27,0.00,,---,0.00,VWS V14.01,2013-03-02 15:19:00,
2013-03-02 07:24:00,55.4,20.6,30.32,NE,42,12.8,13.2,26,0.00,,---,0.00,VWS V14.01,2013-03-02 15:24:00,
2013-03-02 07:30:00,56.3,21.4,30.32,NE,46,11.9,11.9,26,0.00,,---,0.00,VWS V14.01,2013-03-02 15:30:00,
2013-03-02 07:36:00,57.6,22.5,30.32,NNE,33,6.3,10.5,26,0.00,,---,0.00,VWS V14.01,2013-03-02 15:36:00,
2013-03-02 07:41:00,58.3,23.1,30.32,NE,54,10.5,12.8,26,0.00,,---,0.00,VWS V14.01,2013-03-02 15:41:00,
2013-03-02 07:47:00,59.0,23.7,30.32,ENE,59,8.3,9.2,26,0.00,,---,0.00,VWS V14.01,2013-03-02 15:47:00,
2013-03-02 07:53:00,59.7,24.3,30.32,NE,50,15.4,15.4,26,0.00,,---,0.00,VWS V14.01,2013-03-02 15:53:00,
2013-03-02 07:58:00,60.8,23.8,30.32,NE,42,8.3,10.5,24,0.00,,---,0.00,VWS V14.01,2013-03-02 15:58:00,
2013-03-02 08:04:00,61.7,24.6,30.32,NE,51,12.8,12.8,24,0.00,,---,0.00,VWS V14.01,2013-03-02 16:04:00,
2013-03-02 08:09:00,63.0,25.6,30.32,ENE,72,10.1,10.1,24,0.00,,---,0.00,VWS V14.01,2013-03-02 16:09:00,
2013-03-02 08:14:00,63.5,26.1,30.32,ENE,73,13.2,13.2,24,0.00,,---,0.00,VWS V14.01,2013-03-02 16:14:00,
2013-03-02 08:19:00,63.9,26.4,30.32,NE,46,10.1,17.4,24,0.00,,---,0.00,VWS V14.01,2013-03-02 16:19:00,
2013-03-02 08:25:00,64.4,25.3,30.32,NE,43,11.0,14.5,22,0.00,,---,0.00,VWS V14.01,2013-03-02 16:25:00,
2013-03-02 08:31:00,65.1,25.9,30.32,East,81,12.3,14.5,22,0.00,,---,0.00,VWS V14.01,2013-03-02 16:31:00,
2013-03-02 08:37:00,65.7,26.4,30.32,ENE,75,11.9,15.4,22,0.00,,---,0.00,VWS V14.01,2013-03-02 16:37:00,
2013-03-02 08:43:00,66.2,26.8,30.32,ENE,76,8.3,10.5,22,0.00,,---,0.00,VWS V14.01,2013-03-02 16:43:00,
2013-03-02 08:49:00,66.7,27.3,30.32,ENE,65,15.4,17.9,22,0.00,,---,0.00,VWS V14.01,2013-03-02 16:49:00,
2013-03-02 08:54:00,66.7,27.3,30.32,ENE,66,19.2,19.2,22,0.00,,---,0.00,VWS V14.01,2013-03-02 16:54:00,
2013-03-02 08:59:00,67.3,27.7,30.32,East,91,13.2,17.4,22,0.00,,---,0.00,VWS V14.01,2013-03-02 16:59:00,
2013-03-02 09:05:00,67.8,28.2,30.32,ENE,77,14.5,17.0,22,0.00,,---,0.00,VWS V14.01,2013-03-02 17:05:00,
2013-03-02 09:11:00,68.2,28.5,30.32,East,92,10.5,12.8,22,0.00,,---,0.00,VWS V14.01,2013-03-02 17:11:00,
2013-03-02 09:17:00,68.5,28.8,30.32,East,83,8.7,12.8,22,0.00,,---,0.00,VWS V14.01,2013-03-02 17:17:00,
2013-03-02 09:22:00,68.5,28.8,30.32,ENE,58,13.2,16.3,22,0.00,,---,0.00,VWS V14.01,2013-03-02 17:22:00,
2013-03-02 09:28:00,68.5,28.8,30.32,ENE,72,14.5,19.7,22,0.00,,---,0.00,VWS V14.01,2013-03-02 17:28:00,
2013-03-02 09:33:00,68.9,29.1,30.32,ENE,73,15.0,19.7,22,0.00,,---,0.00,VWS V14.01,2013-03-02 17:33:00,
2013-03-02 09:39:00,68.9,29.1,30.32,ENE,64,13.2,17.4,22,0.00,,---,0.00,VWS V14.01,2013-03-02 17:39:00,
2013-03-02 09:44:00,69.4,29.5,30.32,ENE,68,13.2,14.5,22,0.00,,---,0.00,VWS V14.01,2013-03-02 17:44:00,
2013-03-02 09:50:00,69.6,29.7,30.32,East,100,15.4,16.8,22,0.00,,---,0.00,VWS V14.01,2013-03-02 17:50:00,
2013-03-02 09:56:00,70.2,28.4,30.32,ENE,73,11.9,15.9,21,0.00,,---,0.00,VWS V14.01,2013-03-02 17:56:00,
2013-03-02 10:02:00,69.8,28.1,30.32,ENE,73,11.0,15.4,21,0.00,,---,0.00,VWS V14.01,2013-03-02 18:02:00,
2013-03-02 10:07:00,70.0,28.3,30.32,NE,53,15.4,16.8,21,0.00,,---,0.00,VWS V14.01,2013-03-02 18:07:00,
2013-03-02 10:13:00,70.9,29.0,30.32,ENE,78,16.8,16.8,21,0.00,,---,0.00,VWS V14.01,2013-03-02 18:13:00,
2013-03-02 10:18:00,71.2,29.3,30.32,East,98,8.7,8.7,21,0.00,,---,0.00,VWS V14.01,2013-03-02 18:18:00,
2013-03-02 10:24:00,71.6,29.6,30.32,ENE,70,11.9,11.9,21,0.00,,---,0.00,VWS V14.01,2013-03-02 18:24:00,
2013-03-02 10:29:00,71.4,29.5,30.32,NE,52,11.0,17.9,21,0.00,,---,0.00,VWS V14.01,2013-03-02 18:29:00,
2013-03-02 10:35:00,71.8,29.8,30.32,ENE,71,8.3,15.0,21,0.00,,---,0.00,VWS V14.01,2013-03-02 18:35:00,
2013-03-02 10:40:00,72.1,30.1,30.32,ESE,103,10.1,10.1,21,0.00,,---,0.00,VWS V14.01,2013-03-02 18:40:00,
2013-03-02 10:46:00,72.3,30.2,30.32,East,82,8.1,13.2,21,0.00,,---,0.00,VWS V14.01,2013-03-02 18:46:00,
2013-03-02 10:51:00,72.7,30.5,30.32,East,101,8.1,13.2,21,0.00,,---,0.00,VWS V14.01,2013-03-02 18:51:00,
2013-03-02 10:56:00,73.2,31.0,30.32,East,85,13.2,13.2,21,0.00,,---,0.00,VWS V14.01,2013-03-02 18:56:00,
2013-03-02 11:01:00,73.4,29.3,30.32,NE,45,12.8,12.8,20,0.00,,---,0.00,VWS V14.01,2013-03-02 19:01:00,
2013-03-02 11:07:00,74.1,29.9,30.32,East,87,12.3,12.3,20,0.00,,---,0.00,VWS V14.01,2013-03-02 19:07:00,
2013-03-02 11:13:00,74.3,30.0,30.32,ESE,105,11.4,11.4,20,0.00,,---,0.00,VWS V14.01,2013-03-02 19:13:00,
2013-03-02 11:18:00,74.3,30.0,30.32,ESE,115,13.2,13.2,20,0.00,,---,0.00,VWS V14.01,2013-03-02 19:18:00,
2013-03-02 11:24:00,74.5,30.2,30.29,ESE,112,13.2,19.7,20,0.00,,---,0.00,VWS V14.01,2013-03-02 19:24:00,
2013-03-02 11:29:00,75.0,30.6,30.29,SW,223,6.3,6.3,20,0.00,,---,0.00,VWS V14.01,2013-03-02 19:29:00,
2013-03-02 11:34:00,75.6,31.1,30.29,East,92,6.3,9.6,20,0.00,,---,0.00,VWS V14.01,2013-03-02 19:34:00,
2013-03-02 11:40:00,76.1,31.5,30.29,West,260,2.2,4.0,20,0.00,,---,0.00,VWS V14.01,2013-03-02 19:40:00,
2013-03-02 11:45:00,75.4,30.9,30.29,NE,37,0.0,0.0,20,0.00,,---,0.00,VWS V14.01,2013-03-02 19:45:00,
2013-03-02 11:51:00,75.9,31.4,30.29,SSE,154,8.3,8.3,20,0.00,,---,0.00,VWS V14.01,2013-03-02 19:51:00,
2013-03-02 11:56:00,76.6,32.0,30.29,SW,219,5.8,5.8,20,0.00,,---,0.00,VWS V14.01,2013-03-02 19:56:00,
2013-03-02 12:01:00,77.4,32.6,30.29,South,177,6.3,8.3,20,0.00,,---,0.00,VWS V14.01,2013-03-02 20:01:00,
2013-03-02 12:07:00,77.7,32.9,30.29,SSW,194,10.1,10.1,20,0.00,,---,0.00,VWS V14.01,2013-03-02 20:07:00,
2013-03-02 12:13:00,77.9,33.0,30.29,South,178,7.6,8.3,20,0.00,,---,0.00,VWS V14.01,2013-03-02 20:13:00,
2013-03-02 12:19:00,78.3,33.3,30.29,East,92,3.1,3.1,20,0.00,,---,0.00,VWS V14.01,2013-03-02 20:19:00,
2013-03-02 12:24:00,78.6,33.6,30.29,SSW,199,6.3,8.7,20,0.00,,---,0.00,VWS V14.01,2013-03-02 20:24:00,
2013-03-02 12:29:00,78.8,31.8,30.26,South,179,5.4,5.4,18,0.00,,---,0.00,VWS V14.01,2013-03-02 20:29:00,
2013-03-02 12:35:00,78.1,33.2,30.26,East,83,4.0,5.8,20,0.00,,---,0.00,VWS V14.01,2013-03-02 20:35:00,
2013-03-02 12:40:00,78.3,33.3,30.26,SE,138,3.6,5.4,20,0.00,,---,0.00,VWS V14.01,2013-03-02 20:40:00,
2013-03-02 12:45:00,78.1,33.2,30.26,NE,39,3.1,3.1,20,0.00,,---,0.00,VWS V14.01,2013-03-02 20:45:00,
2013-03-02 12:51:00,77.9,33.0,30.26,North,0,3.1,3.1,20,0.00,,---,0.00,VWS V14.01,2013-03-02 20:51:00,
2013-03-02 12:56:00,77.4,32.6,30.26,West,261,5.4,7.6,20,0.00,,---,0.00,VWS V14.01,2013-03-02 20:56:00,
2013-03-02 13:02:00,77.0,32.3,30.26,WSW,255,9.2,11.4,20,0.00,,---,0.00,VWS V14.01,2013-03-02 21:02:00,
2013-03-02 13:07:00,77.0,32.3,30.26,WSW,238,12.8,12.8,20,0.00,,---,0.00,VWS V14.01,2013-03-02 21:07:00,
2013-03-02 13:13:00,76.8,32.1,30.26,WNW,287,6.3,10.1,20,0.00,,---,0.00,VWS V14.01,2013-03-02 21:13:00,
2013-03-02 13:18:00,76.1,31.5,30.26,NNW,329,8.3,10.1,20,0.00,,---,0.00,VWS V14.01,2013-03-02 21:18:00,
2013-03-02 13:24:00,75.9,31.4,30.26,WSW,249,8.7,10.5,20,0.00,,---,0.00,VWS V14.01,2013-03-02 21:24:00,
2013-03-02 13:29:00,75.7,31.2,30.23,West,266,5.4,5.4,20,0.00,,---,0.00,VWS V14.01,2013-03-02 21:29:00,
2013-03-02 13:34:00,75.6,31.1,30.23,NW,307,10.5,10.5,20,0.00,,---,0.00,VWS V14.01,2013-03-02 21:34:00,
2013-03-02 13:40:00,75.4,30.9,30.23,WNW,293,8.1,13.2,20,0.00,,---,0.00,VWS V14.01,2013-03-02 21:40:00,
2013-03-02 13:45:00,75.4,30.9,30.23,NW,323,8.1,10.5,20,0.00,,---,0.00,VWS V14.01,2013-03-02 21:45:00,
2013-03-02 13:51:00,75.4,30.9,30.23,West,263,8.3,8.7,20,0.00,,---,0.00,VWS V14.01,2013-03-02 21:51:00,
2013-03-02 13:56:00,75.4,30.9,30.23,WNW,297,5.8,9.2,20,0.00,,---,0.00,VWS V14.01,2013-03-02 21:56:00,
2013-03-02 14:02:00,75.6,31.1,30.23,WSW,252,8.7,11.0,20,0.00,,---,0.00,VWS V14.01,2013-03-02 22:02:00,
2013-03-02 14:07:00,75.2,30.8,30.23,WNW,295,11.0,11.0,20,0.00,,---,0.00,VWS V14.01,2013-03-02 22:07:00,
2013-03-02 14:12:00,74.7,30.3,30.23,NW,315,13.2,13.2,20,0.00,,---,0.00,VWS V14.01,2013-03-02 22:12:00,
2013-03-02 14:18:00,74.7,30.3,30.23,WSW,251,8.3,13.2,20,0.00,,---,0.00,VWS V14.01,2013-03-02 22:18:00,
2013-03-02 14:23:00,75.4,30.9,30.23,West,260,8.7,13.6,20,0.00,,---,0.00,VWS V14.01,2013-03-02 22:23:00,
2013-03-02 14:29:00,75.2,30.8,30.23,West,271,5.8,11.0,20,0.00,,---,0.00,VWS V14.01,2013-03-02 22:29:00,
2013-03-02 14:34:00,74.8,30.5,30.23,West,262,8.7,15.0,20,0.00,,---,0.00,VWS V14.01,2013-03-02 22:34:00,
2013-03-02 14:40:00,74.7,30.3,30.23,NW,315,8.7,10.1,20,0.00,,---,0.00,VWS V14.01,2013-03-02 22:40:00,
2013-03-02 14:45:00,74.7,30.3,30.23,West,270,5.8,9.6,20,0.00,,---,0.00,VWS V14.01,2013-03-02 22:45:00,
2013-03-02 14:51:00,74.5,30.2,30.23,WNW,298,8.3,12.3,20,0.00,,---,0.00,VWS V14.01,2013-03-02 22:51:00,
2013-03-02 14:56:00,74.1,29.9,30.23,WSW,256,15.4,17.0,20,0.00,,---,0.00,VWS V14.01,2013-03-02 22:56:00,
2013-03-02 15:01:00,74.3,30.0,30.23,SW,226,10.5,12.3,20,0.00,,---,0.00,VWS V14.01,2013-03-02 23:01:00,
2013-03-02 15:07:00,74.3,30.0,30.23,WSW,237,12.8,12.8,20,0.00,,---,0.00,VWS V14.01,2013-03-02 23:07:00,
2013-03-02 15:12:00,73.4,29.3,30.23,WSW,247,10.5,15.4,20,0.00,,---,0.00,VWS V14.01,2013-03-02 23:12:00,
2013-03-02 15:18:00,72.7,30.5,30.23,West,277,8.3,10.1,21,0.00,,---,0.00,VWS V14.01,2013-03-02 23:18:00,
2013-03-02 15:23:00,72.9,30.7,30.23,WSW,251,11.0,11.0,21,0.00,,---,0.00,VWS V14.01,2013-03-02 23:23:00,
2013-03-02 15:29:00,73.0,30.8,30.23,WSW,256,11.9,12.8,21,0.00,,---,0.00,VWS V14.01,2013-03-02 23:29:00,
2013-03-02 15:35:00,72.9,30.7,30.23,WNW,297,4.9,8.3,21,0.00,,---,0.00,VWS V14.01,2013-03-02 23:35:00,
2013-03-02 15:40:00,72.1,30.1,30.20,WSW,245,8.3,8.3,21,0.00,,---,0.00,VWS V14.01,2013-03-02 23:40:00,
2013-03-02 15:46:00,72.0,29.9,30.20,NW,308,8.1,8.3,21,0.00,,---,0.00,VWS V14.01,2013-03-02 23:46:00,
2013-03-02 15:51:00,71.6,29.6,30.20,West,264,7.6,12.3,21,0.00,,---,0.00,VWS V14.01,2013-03-02 23:51:00,
2013-03-02 15:56:00,71.2,29.3,30.20,WSW,254,8.1,8.1,21,0.00,,---,0.00,VWS V14.01,2013-03-02 23:56:00,
2013-03-02 16:01:00,70.9,29.0,30.20,West,270,5.8,8.7,21,0.00,,---,0.00,VWS V14.01,2013-03-03 00:01:00,
2013-03-02 16:07:00,70.2,28.4,30.20,WSW,250,7.6,7.6,21,0.00,,---,0.00,VWS V14.01,2013-03-03 00:07:00,
2013-03-02 16:12:00,69.8,28.1,30.20,WSW,256,6.7,6.7,21,0.00,,---,0.00,VWS V14.01,2013-03-03 00:12:00,
2013-03-02 16:18:00,69.4,29.5,30.20,West,263,10.1,10.5,22,0.00,,---,0.00,VWS V14.01,2013-03-03 00:18:00,
2013-03-02 16:23:00,69.3,29.4,30.20,West,272,5.8,8.3,22,0.00,,---,0.00,VWS V14.01,2013-03-03 00:23:00,
2013-03-02 16:29:00,69.1,29.2,30.20,West,261,8.7,8.7,22,0.00,,---,0.00,VWS V14.01,2013-03-03 00:29:00,
2013-03-02 16:34:00,68.9,29.1,30.20,West,266,10.1,10.5,22,0.00,,---,0.00,VWS V14.01,2013-03-03 00:34:00,
2013-03-02 16:40:00,68.9,29.1,30.20,West,260,10.5,11.0,22,0.00,,---,0.00,VWS V14.01,2013-03-03 00:40:00,
2013-03-02 16:45:00,69.1,29.2,30.20,West,270,11.0,11.4,22,0.00,,---,0.00,VWS V14.01,2013-03-03 00:45:00,
2013-03-02 16:51:00,68.7,28.9,30.20,West,262,8.1,9.2,22,0.00,,---,0.00,VWS V14.01,2013-03-03 00:51:00,
2013-03-02 16:57:00,68.4,28.6,30.20,West,276,6.7,8.3,22,0.00,,---,0.00,VWS V14.01,2013-03-03 00:57:00,
2013-03-02 17:03:00,68.2,28.5,30.20,West,266,8.7,10.5,22,0.00,,---,0.00,VWS V14.01,2013-03-03 01:03:00,
2013-03-02 17:08:00,68.0,28.3,30.20,West,274,7.6,11.0,22,0.00,,---,0.00,VWS V14.01,2013-03-03 01:08:00,
2013-03-02 17:14:00,67.5,27.9,30.20,West,271,8.1,8.7,22,0.00,,---,0.00,VWS V14.01,2013-03-03 01:14:00,
2013-03-02 17:19:00,67.1,27.6,30.20,West,280,5.4,5.4,22,0.00,,---,0.00,VWS V14.01,2013-03-03 01:19:00,
2013-03-02 17:25:00,66.6,27.1,30.20,West,264,8.1,8.3,22,0.00,,---,0.00,VWS V14.01,2013-03-03 01:25:00,
2013-03-02 17:30:00,66.2,26.8,30.20,West,267,7.6,7.6,22,0.00,,---,0.00,VWS V14.01,2013-03-03 01:30:00,
2013-03-02 17:35:00,65.7,26.4,30.20,WNW,286,5.4,8.1,22,0.00,,---,0.00,VWS V14.01,2013-03-03 01:35:00,
2013-03-02 17:41:00,65.1,25.9,30.20,WSW,256,6.3,6.3,22,0.00,,---,0.00,VWS V14.01,2013-03-03 01:41:00,
2013-03-02 17:46:00,64.4,25.3,30.20,West,262,6.3,7.2,22,0.00,,---,0.00,VWS V14.01,2013-03-03 01:46:00,
2013-03-02 17:51:00,63.7,26.2,30.20,WNW,283,3.6,6.3,24,0.00,,---,0.00,VWS V14.01,2013-03-03 01:51:00,
2013-03-02 17:57:00,63.0,25.6,30.20,WNW,284,4.0,5.8,24,0.00,,---,0.00,VWS V14.01,2013-03-03 01:57:00,
2013-03-02 18:03:00,62.4,25.2,30.20,WNW,294,3.6,5.4,24,0.00,,---,0.00,VWS V14.01,2013-03-03 02:03:00,
2013-03-02 18:08:00,61.7,24.6,30.20,West,277,3.6,3.6,24,0.00,,---,0.00,VWS V14.01,2013-03-03 02:08:00,
2013-03-02 18:13:00,61.3,24.3,30.20,West,273,0.0,0.0,24,0.00,,---,0.00,VWS V14.01,2013-03-03 02:13:00,
2013-03-02 18:19:00,60.3,24.8,30.20,SE,132,4.0,4.9,26,0.00,,---,0.00,VWS V14.01,2013-03-03 02:19:00,
2013-03-02 18:25:00,58.6,23.4,30.20,South,175,5.4,7.2,26,0.00,,---,0.00,VWS V14.01,2013-03-03 02:25:00,
2013-03-02 18:31:00,57.4,22.3,30.20,SW,214,4.0,4.0,26,0.00,,---,0.00,VWS V14.01,2013-03-03 02:31:00,
2013-03-02 18:36:00,56.8,21.9,30.20,SSE,165,4.0,6.3,26,0.00,,---,0.00,VWS V14.01,2013-03-03 02:36:00,
2013-03-02 18:42:00,56.7,21.7,30.20,SSW,195,2.7,2.7,26,0.00,,---,0.00,VWS V14.01,2013-03-03 02:42:00,
2013-03-02 18:47:00,57.4,22.3,30.20,West,263,0.0,0.0,26,0.00,,---,0.00,VWS V14.01,2013-03-03 02:47:00,
2013-03-02 18:53:00,56.1,21.3,30.20,SE,139,3.1,3.1,26,0.00,,---,0.00,VWS V14.01,2013-03-03 02:53:00,
2013-03-02 18:58:00,54.1,20.9,30.20,SSE,153,4.0,4.5,27,0.00,,---,0.00,VWS V14.01,2013-03-03 02:58:00,
2013-03-02 19:04:00,52.9,19.8,30.20,South,175,2.7,3.1,27,0.00,,---,0.00,VWS V14.01,2013-03-03 03:04:00,
2013-03-02 19:09:00,52.3,19.4,30.23,East,96,5.8,5.8,27,0.00,,---,0.00,VWS V14.01,2013-03-03 03:09:00,
2013-03-02 19:15:00,51.3,19.7,30.23,ESE,115,0.0,0.0,28,0.00,,---,0.00,VWS V14.01,2013-03-03 03:15:00,
2013-03-02 19:21:00,50.4,18.9,30.23,ESE,120,0.0,0.0,28,0.00,,---,0.00,VWS V14.01,2013-03-03 03:21:00,
2013-03-02 19:27:00,49.3,18.0,30.23,SW,214,0.0,0.0,28,0.00,,---,0.00,VWS V14.01,2013-03-03 03:27:00,
2013-03-02 19:33:00,48.9,17.7,30.23,SSE,148,0.0,2.7,28,0.00,,---,0.00,VWS V14.01,2013-03-03 03:33:00,
2013-03-02 19:38:00,48.7,17.5,30.23,ESE,104,4.0,4.0,28,0.00,,---,0.00,VWS V14.01,2013-03-03 03:38:00,
2013-03-02 19:44:00,48.2,17.0,30.23,SE,145,0.0,4.0,28,0.00,,---,0.00,VWS V14.01,2013-03-03 03:44:00,
2013-03-02 19:49:00,47.3,16.3,30.23,SE,146,2.7,2.7,28,0.00,,---,0.00,VWS V14.01,2013-03-03 03:49:00,
2013-03-02 19:54:00,46.6,15.6,30.23,SE,125,2.2,4.0,28,0.00,,---,0.00,VWS V14.01,2013-03-03 03:54:00,
2013-03-02 20:00:00,46.0,16.4,30.23,ESE,108,0.0,0.0,30,0.00,,---,0.00,VWS V14.01,2013-03-03 04:00:00,
2013-03-02 20:06:00,45.3,15.7,30.23,SE,133,0.0,0.0,30,0.00,,---,0.00,VWS V14.01,2013-03-03 04:06:00,
2013-03-02 20:12:00,45.0,15.4,30.23,SSE,154,0.0,0.0,30,0.00,,---,0.00,VWS V14.01,2013-03-03 04:12:00,
2013-03-02 20:18:00,44.8,15.3,30.23,SE,130,0.0,0.0,30,0.00,,---,0.00,VWS V14.01,2013-03-03 04:18:00,
2013-03-02 20:24:00,44.1,14.6,30.23,ESE,121,3.6,3.6,30,0.00,,---,0.00,VWS V14.01,2013-03-03 04:24:00,
2013-03-02 20:29:00,43.5,14.2,30.23,ESE,117,0.0,0.0,30,0.00,,---,0.00,VWS V14.01,2013-03-03 04:29:00,
2013-03-02 20:35:00,43.3,14.0,30.23,ESE,120,2.2,2.7,30,0.00,,---,0.00,VWS V14.01,2013-03-03 04:35:00,
2013-03-02 20:40:00,42.6,14.5,30.23,ESE,116,0.0,0.0,32,0.00,,---,0.00,VWS V14.01,2013-03-03 04:40:00,
2013-03-02 20:46:00,42.1,14.0,30.23,NNE,25,0.0,0.0,32,0.00,,---,0.00,VWS V14.01,2013-03-03 04:46:00,
2013-03-02 20:51:00,41.4,13.4,30.23,NNE,26,0.0,0.0,32,0.00,,---,0.00,VWS V14.01,2013-03-03 04:51:00,
2013-03-02 20:57:00,40.8,12.9,30.23,North,8,0.0,0.0,32,0.00,,---,0.00,VWS V14.01,2013-03-03 04:57:00,
2013-03-02 21:00:00,40.5,12.6,30.23,North,8,0.0,0.0,32,0.00,,---,0.00,VWS V14.01,2013-03-03 05:00:00,
2013-03-02 21:01:00,40.5,12.6,30.23,North,8,0.0,0.0,32,0.00,,---,0.00,VWS V14.01,2013-03-03 05:01:00,
2013-03-02 21:03:00,40.5,12.6,30.23,North,8,0.0,0.0,32,0.00,,---,0.00,VWS V14.01,2013-03-03 05:03:00,
2013-03-02 21:08:00,40.5,12.6,30.23,SE,130,0.0,0.0,32,0.00,,---,0.00,VWS V14.01,2013-03-03 05:08:00,
2013-03-02 21:14:00,40.1,12.3,30.23,ENE,74,0.0,0.0,32,0.00,,---,0.00,VWS V14.01,2013-03-03 05:14:00,
2013-03-02 21:19:00,39.7,11.9,30.23,ENE,74,0.0,0.0,32,0.00,,---,0.00,VWS V14.01,2013-03-03 05:19:00,
2013-03-02 21:24:00,38.8,11.2,30.23,North,8,0.0,0.0,32,0.00,,---,0.00,VWS V14.01,2013-03-03 05:24:00,
2013-03-02 21:30:00,38.7,11.0,30.23,NNE,20,0.0,0.0,32,0.00,,---,0.00,VWS V14.01,2013-03-03 05:30:00,
2013-03-02 21:36:00,38.7,14.0,30.23,NNE,20,0.0,0.0,36,0.00,,---,0.00,VWS V14.01,2013-03-03 05:36:00,
2013-03-02 21:42:00,38.1,13.5,30.23,NE,51,0.0,0.0,36,0.00,,---,0.00,VWS V14.01,2013-03-03 05:42:00,
2013-03-02 21:47:00,37.6,13.1,30.23,NNE,33,0.0,0.0,36,0.00,,---,0.00,VWS V14.01,2013-03-03 05:47:00,
2013-03-02 21:53:00,37.8,13.2,30.23,ESE,118,0.0,0.0,36,0.00,,---,0.00,VWS V14.01,2013-03-03 05:53:00,
2013-03-02 21:58:00,37.6,13.1,30.23,SE,135,3.6,3.6,36,0.00,,---,0.00,VWS V14.01,2013-03-03 05:58:00,
2013-03-02 22:04:00,37.2,12.7,30.23,SE,133,0.0,0.0,36,0.00,,---,0.00,VWS V14.01,2013-03-03 06:04:00,
2013-03-02 22:09:00,36.9,12.4,30.23,SE,133,0.0,0.0,36,0.00,,---,0.00,VWS V14.01,2013-03-03 06:09:00,
2013-03-02 22:14:00,36.3,14.6,30.23,SE,133,0.0,0.0,40,0.00,,---,0.00,VWS V14.01,2013-03-03 06:14:00,
2013-03-02 22:19:00,35.6,14.0,30.23,NE,54,3.6,3.6,40,0.00,,---,0.00,VWS V14.01,2013-03-03 06:19:00,
2013-03-02 22:25:00,35.6,14.0,30.23,ENE,68,0.0,0.0,40,0.00,,---,0.00,VWS V14.01,2013-03-03 06:25:00,
2013-03-02 22:30:00,35.6,14.0,30.23,ENE,58,0.0,0.0,40,0.00,,---,0.00,VWS V14.01,2013-03-03 06:30:00,
2013-03-02 22:36:00,35.8,14.1,30.23,ENE,58,0.0,0.0,40,0.00,,---,0.00,VWS V14.01,2013-03-03 06:36:00,
2013-03-02 22:41:00,36.1,16.1,30.23,ESE,110,0.0,0.0,44,0.00,,---,0.00,VWS V14.01,2013-03-03 06:41:00,
2013-03-02 22:47:00,36.0,15.9,30.23,ESE,108,0.0,0.0,44,0.00,,---,0.00,VWS V14.01,2013-03-03 06:47:00,
2013-03-02 22:52:00,35.4,16.2,30.23,NE,39,0.0,2.7,45,0.00,,---,0.00,VWS V14.01,2013-03-03 06:52:00,
2013-03-02 22:57:00,34.7,15.6,30.23,NE,39,0.0,2.2,45,0.00,,---,0.00,VWS V14.01,2013-03-03 06:57:00,
2013-03-02 23:03:00,34.2,15.1,30.23,NE,39,0.0,0.0,45,0.00,,---,0.00,VWS V14.01,2013-03-03 07:03:00,
2013-03-02 23:08:00,34.2,15.1,30.23,NE,39,0.0,0.0,45,0.00,,---,0.00,VWS V14.01,2013-03-03 07:08:00,
2013-03-02 23:14:00,34.3,15.2,30.23,East,100,0.0,0.0,45,0.00,,---,0.00,VWS V14.01,2013-03-03 07:14:00,
2013-03-02 23:19:00,34.3,15.2,30.23,ESE,114,0.0,0.0,45,0.00,,---,0.00,VWS V14.01,2013-03-03 07:19:00,
2013-03-02 23:25:00,34.3,15.2,30.20,ESE,114,0.0,0.0,45,0.00,,---,0.00,VWS V14.01,2013-03-03 07:25:00,
2013-03-02 23:31:00,34.0,14.9,30.20,ESE,114,0.0,0.0,45,0.00,,---,0.00,VWS V14.01,2013-03-03 07:31:00,
2013-03-02 23:37:00,33.8,14.7,30.20,ESE,114,0.0,0.0,45,0.00,,---,0.00,VWS V14.01,2013-03-03 07:37:00,
2013-03-02 23:42:00,33.6,15.3,30.20,ESE,114,0.0,0.0,46,0.00,,---,0.00,VWS V14.01,2013-03-03 07:42:00,
2013-03-02 23:48:00,33.6,15.3,30.20,East,100,0.0,0.0,46,0.00,,---,0.00,VWS V14.01,2013-03-03 07:48:00,
2013-03-02 23:53:00,33.6,15.3,30.20,East,82,0.0,0.0,46,0.00,,---,0.00,VWS V14.01,2013-03-03 07:53:00,
2013-03-02 23:59:00,33.4,15.1,30.20,NNE,27,0.0,0.0,46,0.00,,---,0.00,VWS V14.01,2013-03-03 07:59:00,